Hlavní strana
METAR-TAF:

METAR-TAF

Letiště :

Evansville, Indiana, Spojené státy americké

zeměpisná šířka: 38-02-35N, zeměpisná délka: 087-31-13W, výška: 127 m

Aktuální stav počasí

Zpráva byla vytvořena před 1 hodinou a 10 minutami, v 10:54 UTC
Bezvětří
Teplota -2°C
Vlhkost vzduchu 86%
Tlak 1029 hPa
Viditelnost: 16.1 km
Jasno

METAR: KEVV 071054Z AUTO 00000KT 10SM CLR M02/M04 A3038 RMK AO2 SLP291 T10171044

Čas: 06:04 (12:04 UTC)

Předpověď počasí

Zpráva byla vytvořena před 44 minutami, v 11:20 UTC
Předpověď platná od 07 v 12 UTC do 08 v 12 UTC
vítr z různých směrů 3 kt
Viditelnost: 10 km
Jasno
Od 07 v 1500 UTC
vítr z různých směrů 4 kt
Viditelnost: 10 km
Skoro jasno ve výšce 25000 ft

TAF: KEVV 071120Z 0712/0812 VRB03KT P6SM SKC FM071500 VRB04KT P6SM FEW250

Stav a předpovědi počasí z více než 4 000 letišť (zprávy METAR a TAF).

Červené a žluté tečky na mapě představují dostupné meteorologické stanice.

Když kurzor umístíte na tečku, zobrazí se název stanice.

Pak kliknutím zobrazíte stav a předpověď počasí.

Chcete-li změnit mapu, kliknutím na zelené tlačítko se znaménkem +mapu přiblížíte, kliknutím na zelené tlačítko se znaménkem – mapu oddálíte a kliknutím na zelené šipky přejdete na sousední mapy.


METAR-TAF: